Time,TemperatureF,DewpointF,PressureIn,WindDirection,WindDirectionDegrees,WindSpeedMPH,WindSpeedGustMPH,Humidity,HourlyPrecipIn,Conditions,Clouds,dailyrainin,SoftwareType,DateUTC
2013-04-24 00:00:00,47.3,44.8,29.86,North,0,0.0,0.0,91,0.00,,,0.00,LWC V2.00 B2112,2013-04-24 07:00:00,
2013-04-24 00:10:00,47.3,44.8,29.86,North,0,0.0,0.0,91,0.00,,,0.00,LWC V2.00 B2112,2013-04-24 07:10:00,
2013-04-24 00:20:00,47.3,44.8,29.86,North,0,0.0,0.0,91,0.00,,,0.00,LWC V2.00 B2112,2013-04-24 07:20:00,
2013-04-24 00:30:00,47.7,45.2,29.87,North,0,0.0,0.0,91,0.00,,,0.00,LWC V2.00 B2112,2013-04-24 07:30:00,
2013-04-24 00:40:00,47.7,45.2,29.87,North,0,0.0,0.0,91,0.00,,,0.00,LWC V2.00 B2112,2013-04-24 07:40:00,
2013-04-24 00:50:00,47.7,45.2,29.87,North,0,0.0,0.0,91,0.00,,,0.00,LWC V2.00 B2112,2013-04-24 07:50:00,
2013-04-24 01:00:00,48.0,45.5,29.87,North,0,0.0,0.0,91,0.00,,,0.00,LWC V2.00 B2112,2013-04-24 08:00:00,
2013-04-24 01:10:00,48.0,45.5,29.87,North,0,0.0,0.0,91,0.00,,,0.00,LWC V2.00 B2112,2013-04-24 08:10:00,
2013-04-24 01:20:00,48.0,45.5,29.87,North,0,0.0,0.0,91,0.00,,,0.00,LWC V2.00 B2112,2013-04-24 08:20:00,
2013-04-24 01:30:00,47.7,45.2,29.86,North,0,0.0,0.0,91,0.00,,,0.00,LWC V2.00 B2112,2013-04-24 08:30:00,
2013-04-24 01:40:00,47.7,45.2,29.86,North,0,0.0,0.0,91,0.00,,,0.00,LWC V2.00 B2112,2013-04-24 08:40:00,
2013-04-24 01:50:00,47.7,45.2,29.86,North,0,0.0,0.0,91,0.00,,,0.00,LWC V2.00 B2112,2013-04-24 08:50:00,
2013-04-24 02:00:00,47.9,45.4,29.85,North,0,0.0,0.0,91,0.00,,,0.00,LWC V2.00 B2112,2013-04-24 09:00:00,
2013-04-24 02:10:00,47.9,45.4,29.85,North,0,0.0,0.0,91,0.00,,,0.00,LWC V2.00 B2112,2013-04-24 09:10:00,
2013-04-24 02:20:00,47.9,45.4,29.85,North,0,0.0,0.0,91,0.00,,,0.00,LWC V2.00 B2112,2013-04-24 09:20:00,
2013-04-24 02:30:00,47.2,44.7,29.84,North,0,0.0,0.0,91,0.00,,,0.00,LWC V2.00 B2112,2013-04-24 09:30:00,
2013-04-24 02:40:00,47.2,44.7,29.84,North,0,0.0,0.0,91,0.00,,,0.00,LWC V2.00 B2112,2013-04-24 09:40:00,
2013-04-24 02:50:00,47.2,44.7,29.84,North,0,0.0,0.0,91,0.00,,,0.00,LWC V2.00 B2112,2013-04-24 09:50:00,
2013-04-24 03:00:00,46.9,44.4,29.83,North,0,0.0,0.0,91,0.00,,,0.00,LWC V2.00 B2112,2013-04-24 10:00:00,
2013-04-24 03:10:00,46.9,44.4,29.83,North,0,0.0,0.0,91,0.00,,,0.00,LWC V2.00 B2112,2013-04-24 10:10:00,
2013-04-24 03:20:00,46.9,44.4,29.83,North,0,0.0,0.0,91,0.00,,,0.00,LWC V2.00 B2112,2013-04-24 10:20:00,
2013-04-24 03:30:00,47.0,44.5,29.83,North,0,0.0,0.0,91,0.00,,,0.00,LWC V2.00 B2112,2013-04-24 10:30:00,
2013-04-24 03:40:00,47.0,44.5,29.83,North,0,0.0,0.0,91,0.00,,,0.00,LWC V2.00 B2112,2013-04-24 10:40:00,
2013-04-24 03:50:00,47.0,44.5,29.83,North,0,0.0,0.0,91,0.00,,,0.00,LWC V2.00 B2112,2013-04-24 10:50:00,
2013-04-24 04:00:00,46.6,44.1,29.82,WNW,292,0.0,2.0,91,0.00,,,0.00,LWC V2.00 B2112,2013-04-24 11:00:00,
2013-04-24 04:10:00,46.6,44.1,29.82,WNW,292,0.0,2.0,91,0.00,,,0.00,LWC V2.00 B2112,2013-04-24 11:10:00,
2013-04-24 04:20:00,46.6,44.1,29.82,WNW,292,0.0,2.0,91,0.00,,,0.00,LWC V2.00 B2112,2013-04-24 11:20:00,
2013-04-24 04:30:00,46.6,44.1,29.82,NE,45,0.0,1.0,91,0.00,,,0.00,LWC V2.00 B2112,2013-04-24 11:30:00,
2013-04-24 04:40:00,46.6,44.1,29.82,NE,45,0.0,1.0,91,0.00,,,0.00,LWC V2.00 B2112,2013-04-24 11:40:00,
2013-04-24 04:50:00,46.6,44.1,29.82,NE,45,0.0,1.0,91,0.00,,,0.00,LWC V2.00 B2112,2013-04-24 11:50:00,
2013-04-24 05:00:00,46.6,44.1,29.82,North,0,0.0,0.0,91,0.00,,,0.00,LWC V2.00 B2112,2013-04-24 12:00:00,
2013-04-24 05:10:00,46.6,44.1,29.82,North,0,0.0,0.0,91,0.00,,,0.00,LWC V2.00 B2112,2013-04-24 12:10:00,
2013-04-24 05:20:00,46.6,44.1,29.82,North,0,0.0,0.0,91,0.00,,,0.00,LWC V2.00 B2112,2013-04-24 12:20:00,
2013-04-24 05:30:00,46.7,44.2,29.82,NE,45,0.0,1.0,91,0.00,,,0.00,LWC V2.00 B2112,2013-04-24 12:30:00,
2013-04-24 05:40:00,46.7,44.2,29.82,NE,45,0.0,1.0,91,0.00,,,0.00,LWC V2.00 B2112,2013-04-24 12:40:00,
2013-04-24 05:50:00,46.7,44.2,29.82,NE,45,0.0,1.0,91,0.00,,,0.00,LWC V2.00 B2112,2013-04-24 12:50:00,
2013-04-24 06:00:00,46.7,44.2,29.82,East,90,0.0,1.0,91,0.00,,,0.00,LWC V2.00 B2112,2013-04-24 13:00:00,
2013-04-24 06:10:00,46.7,44.2,29.82,East,90,0.0,1.0,91,0.00,,,0.00,LWC V2.00 B2112,2013-04-24 13:10:00,
2013-04-24 06:24:00,46.5,44.0,29.82,WSW,242,0.0,0.0,91,0.00,,,0.00,LWC V2.00 B2112,2013-04-24 13:24:00,
2013-04-24 06:29:00,46.4,43.9,29.82,NE,50,0.0,1.0,91,0.00,,,0.00,LWC V2.00 B2112,2013-04-24 13:29:00,
2013-04-24 06:34:00,46.2,43.7,29.82,ESE,103,0.0,0.0,91,0.00,,,0.00,LWC V2.00 B2112,2013-04-24 13:34:00,
2013-04-24 06:39:00,46.2,43.7,29.82,ESE,110,0.0,1.0,91,0.00,,,0.00,LWC V2.00 B2112,2013-04-24 13:39:00,
2013-04-24 06:44:00,46.0,43.5,29.83,East,94,0.0,0.0,91,0.00,,,0.00,LWC V2.00 B2112,2013-04-24 13:44:00,
2013-04-24 06:49:00,45.9,43.4,29.83,ESE,109,0.0,0.0,91,0.00,,,0.00,LWC V2.00 B2112,2013-04-24 13:49:00,
2013-04-24 06:54:00,45.8,43.3,29.83,ESE,108,0.0,0.0,91,0.00,,,0.00,LWC V2.00 B2112,2013-04-24 13:54:00,
2013-04-24 06:59:00,45.9,43.4,29.83,ESE,108,0.0,0.0,91,0.00,,,0.00,LWC V2.00 B2112,2013-04-24 13:59:00,
2013-04-24 07:04:00,45.9,43.7,29.83,ESE,109,0.0,0.0,92,0.00,,,0.00,LWC V2.00 B2112,2013-04-24 14:04:00,
2013-04-24 07:09:00,46.0,43.8,29.83,ESE,109,0.0,0.0,92,0.00,,,0.00,LWC V2.00 B2112,2013-04-24 14:09:00,
2013-04-24 07:14:00,46.1,43.9,29.83,ESE,107,0.0,0.0,92,0.00,,,0.00,LWC V2.00 B2112,2013-04-24 14:14:00,
2013-04-24 07:19:00,46.2,44.0,29.83,ESE,107,0.0,0.0,92,0.00,,,0.00,LWC V2.00 B2112,2013-04-24 14:19:00,
2013-04-24 07:24:00,46.3,43.8,29.83,ESE,109,0.0,0.0,91,0.00,,,0.00,LWC V2.00 B2112,2013-04-24 14:24:00,
2013-04-24 07:29:00,46.2,43.7,29.84,ESE,109,0.0,0.0,91,0.00,,,0.00,LWC V2.00 B2112,2013-04-24 14:29:00,
2013-04-24 07:34:00,46.3,43.8,29.84,ESE,108,0.0,0.0,91,0.00,,,0.00,LWC V2.00 B2112,2013-04-24 14:34:00,
2013-04-24 07:39:00,46.4,43.9,29.84,ESE,107,0.0,0.0,91,0.00,,,0.00,LWC V2.00 B2112,2013-04-24 14:39:00,
2013-04-24 07:44:00,46.5,44.0,29.84,ESE,108,0.0,0.0,91,0.00,,,0.00,LWC V2.00 B2112,2013-04-24 14:44:00,
2013-04-24 07:49:00,46.7,44.2,29.84,ESE,108,0.0,0.0,91,0.00,,,0.00,LWC V2.00 B2112,2013-04-24 14:49:00,
2013-04-24 07:54:00,46.9,44.4,29.85,SW,220,0.0,0.0,91,0.00,,,0.00,LWC V2.00 B2112,2013-04-24 14:54:00,
2013-04-24 07:59:00,47.0,44.5,29.85,ESE,111,0.0,0.0,91,0.00,,,0.00,LWC V2.00 B2112,2013-04-24 14:59:00,
2013-04-24 08:04:00,47.2,44.7,29.85,ESE,103,0.0,0.0,91,0.00,,,0.00,LWC V2.00 B2112,2013-04-24 15:04:00,
2013-04-24 08:09:00,47.3,44.8,29.85,ESE,103,0.0,0.0,91,0.00,,,0.00,LWC V2.00 B2112,2013-04-24 15:09:00,
2013-04-24 08:14:00,47.5,45.0,29.85,East,100,0.0,0.0,91,0.00,,,0.00,LWC V2.00 B2112,2013-04-24 15:14:00,
2013-04-24 08:19:00,47.7,45.2,29.85,East,101,0.0,0.0,91,0.00,,,0.00,LWC V2.00 B2112,2013-04-24 15:19:00,
2013-04-24 08:24:00,47.9,45.1,29.86,ESE,103,0.0,0.0,90,0.00,,,0.00,LWC V2.00 B2112,2013-04-24 15:24:00,
2013-04-24 08:29:00,48.1,45.3,29.86,ESE,104,0.0,0.0,90,0.00,,,0.00,LWC V2.00 B2112,2013-04-24 15:29:00,
2013-04-24 08:34:00,48.1,45.3,29.86,East,96,0.0,1.0,90,0.00,,,0.00,LWC V2.00 B2112,2013-04-24 15:34:00,
2013-04-24 08:39:00,48.3,45.5,29.86,East,88,0.0,0.0,90,0.00,,,0.00,LWC V2.00 B2112,2013-04-24 15:39:00,
2013-04-24 08:44:00,48.5,45.7,29.86,East,86,0.0,0.0,90,0.00,,,0.00,LWC V2.00 B2112,2013-04-24 15:44:00,
2013-04-24 08:49:00,48.5,45.7,29.86,East,88,0.0,2.0,90,0.00,,,0.00,LWC V2.00 B2112,2013-04-24 15:49:00,
2013-04-24 08:54:00,48.3,45.2,29.86,East,96,1.0,2.0,89,0.00,,,0.00,LWC V2.00 B2112,2013-04-24 15:54:00,
2013-04-24 08:59:00,48.1,45.3,29.87,ENE,71,0.0,2.0,90,0.00,,,0.00,LWC V2.00 B2112,2013-04-24 15:59:00,
2013-04-24 09:04:00,48.3,45.5,29.87,SE,142,0.0,1.0,90,0.00,,,0.00,LWC V2.00 B2112,2013-04-24 16:04:00,
2013-04-24 09:09:00,48.5,45.7,29.87,ENE,77,0.0,0.0,90,0.00,,,0.00,LWC V2.00 B2112,2013-04-24 16:09:00,
2013-04-24 09:14:00,48.8,46.0,29.87,East,94,2.0,2.0,90,0.00,,,0.00,LWC V2.00 B2112,2013-04-24 16:14:00,
2013-04-24 09:19:00,48.8,45.7,29.87,East,93,0.0,2.0,89,0.00,,,0.00,LWC V2.00 B2112,2013-04-24 16:19:00,
2013-04-24 09:24:00,49.0,46.2,29.87,ESE,103,0.0,2.0,90,0.00,,,0.00,LWC V2.00 B2112,2013-04-24 16:24:00,
2013-04-24 09:29:00,49.1,46.0,29.87,NE,50,0.0,1.0,89,0.00,,,0.00,LWC V2.00 B2112,2013-04-24 16:29:00,
2013-04-24 09:34:00,49.4,46.3,29.87,ESE,108,0.0,1.0,89,0.00,,,0.00,LWC V2.00 B2112,2013-04-24 16:34:00,
2013-04-24 09:39:00,49.7,46.6,29.87,East,96,1.0,1.0,89,0.00,,,0.00,LWC V2.00 B2112,2013-04-24 16:39:00,
2013-04-24 09:44:00,49.9,46.8,29.87,East,100,1.0,1.0,89,0.00,,,0.00,LWC V2.00 B2112,2013-04-24 16:44:00,
2013-04-24 09:49:00,50.7,47.6,29.87,WNW,302,0.0,1.0,89,0.00,,,0.00,LWC V2.00 B2112,2013-04-24 16:49:00,
2013-04-24 09:54:00,51.5,48.1,29.87,NW,325,0.0,2.0,88,0.00,,,0.00,LWC V2.00 B2112,2013-04-24 16:54:00,
2013-04-24 09:59:00,53.0,49.5,29.87,SE,138,2.0,2.0,88,0.00,,,0.00,LWC V2.00 B2112,2013-04-24 16:59:00,
2013-04-24 10:04:00,53.8,49.1,29.87,ENE,72,0.0,5.0,84,0.00,,,0.00,LWC V2.00 B2112,2013-04-24 17:04:00,
2013-04-24 10:09:00,54.4,49.0,29.87,ENE,60,3.0,5.0,82,0.00,,,0.00,LWC V2.00 B2112,2013-04-24 17:09:00,
2013-04-24 10:14:00,54.9,49.5,29.87,NE,46,2.0,5.0,82,0.00,,,0.00,LWC V2.00 B2112,2013-04-24 17:14:00,
2013-04-24 10:19:00,55.1,49.4,29.87,NNW,344,1.0,3.0,81,0.00,,,0.00,LWC V2.00 B2112,2013-04-24 17:19:00,
2013-04-24 10:24:00,55.3,49.2,29.87,NNW,330,2.0,3.0,80,0.00,,,0.00,LWC V2.00 B2112,2013-04-24 17:24:00,
2013-04-24 10:29:00,55.3,48.9,29.87,NE,46,4.0,5.0,79,0.00,,,0.00,LWC V2.00 B2112,2013-04-24 17:29:00,
2013-04-24 10:34:00,55.4,49.0,29.88,SSE,165,1.0,5.0,79,0.00,,,0.00,LWC V2.00 B2112,2013-04-24 17:34:00,
2013-04-24 10:39:00,55.3,48.9,29.88,NNE,30,2.0,10.0,79,0.00,,,0.00,LWC V2.00 B2112,2013-04-24 17:39:00,
2013-04-24 10:44:00,54.9,48.8,29.88,North,349,1.0,1.0,80,0.00,,,0.00,LWC V2.00 B2112,2013-04-24 17:44:00,
2013-04-24 10:49:00,55.0,48.9,29.88,West,269,1.0,4.0,80,0.00,,,0.00,LWC V2.00 B2112,2013-04-24 17:49:00,
2013-04-24 10:54:00,55.1,49.0,29.88,WNW,299,1.0,6.0,80,0.00,,,0.00,LWC V2.00 B2112,2013-04-24 17:54:00,
2013-04-24 10:59:00,55.0,48.9,29.88,NNE,26,2.0,6.0,80,0.00,,,0.00,LWC V2.00 B2112,2013-04-24 17:59:00,
2013-04-24 11:04:00,55.4,49.7,29.88,South,186,1.0,4.0,81,0.00,,,0.00,LWC V2.00 B2112,2013-04-24 18:04:00,
2013-04-24 11:09:00,55.9,49.5,29.88,SW,215,2.0,4.0,79,0.00,,,0.00,LWC V2.00 B2112,2013-04-24 18:09:00,
2013-04-24 11:14:00,56.1,49.7,29.88,WNW,297,2.0,2.0,79,0.00,,,0.00,LWC V2.00 B2112,2013-04-24 18:14:00,
2013-04-24 11:19:00,55.9,49.1,29.89,NW,319,1.0,3.0,78,0.00,,,0.00,LWC V2.00 B2112,2013-04-24 18:19:00,
2013-04-24 11:24:00,56.2,49.8,29.89,NNW,337,3.0,3.0,79,0.00,,,0.00,LWC V2.00 B2112,2013-04-24 18:24:00,
2013-04-24 11:29:00,55.9,48.8,29.89,East,84,2.0,12.0,77,0.00,,,0.00,LWC V2.00 B2112,2013-04-24 18:29:00,
2013-04-24 11:34:00,55.9,49.8,29.89,NW,316,2.0,5.0,80,0.00,,,0.00,LWC V2.00 B2112,2013-04-24 18:34:00,
2013-04-24 11:39:00,56.2,49.4,29.89,North,4,2.0,8.0,78,0.00,,,0.00,LWC V2.00 B2112,2013-04-24 18:39:00,
2013-04-24 11:44:00,56.1,49.0,29.89,SW,235,0.0,5.0,77,0.00,,,0.00,LWC V2.00 B2112,2013-04-24 18:44:00,
2013-04-24 11:49:00,56.7,49.6,29.89,NW,316,3.0,4.0,77,0.00,,,0.00,LWC V2.00 B2112,2013-04-24 18:49:00,
2013-04-24 11:54:00,56.8,49.3,29.89,NW,306,1.0,2.0,76,0.00,,,0.00,LWC V2.00 B2112,2013-04-24 18:54:00,
2013-04-24 11:59:00,57.2,49.7,29.89,NE,44,3.0,6.0,76,0.00,,,0.00,LWC V2.00 B2112,2013-04-24 18:59:00,
2013-04-24 12:04:00,56.6,49.1,29.89,WNW,302,2.0,3.0,76,0.00,,,0.00,LWC V2.00 B2112,2013-04-24 19:04:00,
2013-04-24 12:09:00,56.8,49.7,29.89,SSW,203,3.0,3.0,77,0.00,,,0.00,LWC V2.00 B2112,2013-04-24 19:09:00,
2013-04-24 12:14:00,57.2,49.3,29.89,ENE,72,0.0,3.0,75,0.00,,,0.00,LWC V2.00 B2112,2013-04-24 19:14:00,
2013-04-24 12:19:00,57.2,49.3,29.89,West,264,1.0,7.0,75,0.00,,,0.00,LWC V2.00 B2112,2013-04-24 19:19:00,
2013-04-24 12:24:00,56.6,49.1,29.89,NNE,16,1.0,7.0,76,0.00,,,0.00,LWC V2.00 B2112,2013-04-24 19:24:00,
2013-04-24 12:29:00,56.6,50.2,29.89,NNE,32,0.0,1.0,79,0.00,,,0.00,LWC V2.00 B2112,2013-04-24 19:29:00,
2013-04-24 12:34:00,57.1,49.6,29.89,NNW,329,3.0,5.0,76,0.00,,,0.00,LWC V2.00 B2112,2013-04-24 19:34:00,
2013-04-24 12:39:00,56.4,48.9,29.89,ENE,68,5.0,7.0,76,0.00,,,0.00,LWC V2.00 B2112,2013-04-24 19:39:00,
2013-04-24 12:44:00,55.7,48.6,29.89,West,277,0.0,2.0,77,0.00,,,0.00,LWC V2.00 B2112,2013-04-24 19:44:00,
2013-04-24 12:49:00,56.6,49.1,29.89,ENE,75,2.0,3.0,76,0.00,,,0.00,LWC V2.00 B2112,2013-04-24 19:49:00,
2013-04-24 12:54:00,56.3,48.8,29.89,NW,315,6.0,6.0,76,0.00,,,0.00,LWC V2.00 B2112,2013-04-24 19:54:00,
2013-04-24 12:59:00,56.8,49.7,29.89,West,278,4.0,6.0,77,0.00,,,0.00,LWC V2.00 B2112,2013-04-24 19:59:00,
2013-04-24 13:04:00,56.9,49.8,29.89,SE,138,1.0,4.0,77,0.00,,,0.00,LWC V2.00 B2112,2013-04-24 20:04:00,
2013-04-24 13:09:00,56.4,48.9,29.89,North,349,1.0,8.0,76,0.00,,,0.00,LWC V2.00 B2112,2013-04-24 20:09:00,
2013-04-24 13:14:00,56.4,49.6,29.89,East,79,5.0,9.0,78,0.00,,,0.00,LWC V2.00 B2112,2013-04-24 20:14:00,
2013-04-24 13:19:00,56.6,49.8,29.89,ENE,77,2.0,4.0,78,0.00,,,0.00,LWC V2.00 B2112,2013-04-24 20:19:00,
2013-04-24 13:24:00,57.1,50.0,29.88,SW,235,0.0,5.0,77,0.00,,,0.00,LWC V2.00 B2112,2013-04-24 20:24:00,
2013-04-24 13:29:00,58.4,50.9,29.88,SE,139,0.0,1.0,76,0.00,,,0.00,LWC V2.00 B2112,2013-04-24 20:29:00,
2013-04-24 13:34:00,59.0,50.0,29.88,North,356,1.0,4.0,72,0.00,,,0.00,LWC V2.00 B2112,2013-04-24 20:34:00,
2013-04-24 13:39:00,59.0,51.1,29.88,WNW,300,0.0,6.0,75,0.00,,,0.00,LWC V2.00 B2112,2013-04-24 20:39:00,
2013-04-24 13:44:00,59.1,50.1,29.88,West,271,2.0,5.0,72,0.00,,,0.00,LWC V2.00 B2112,2013-04-24 20:44:00,
2013-04-24 13:49:00,58.2,50.0,29.88,NNW,327,1.0,5.0,74,0.00,,,0.00,LWC V2.00 B2112,2013-04-24 20:49:00,
2013-04-24 13:54:00,58.1,49.5,29.88,NNW,339,1.0,6.0,73,0.00,,,0.00,LWC V2.00 B2112,2013-04-24 20:54:00,
2013-04-24 13:59:00,58.0,49.4,29.88,SSE,149,1.0,7.0,73,0.00,,,0.00,LWC V2.00 B2112,2013-04-24 20:59:00,
2013-04-24 14:04:00,57.9,50.0,29.88,NNW,336,1.0,4.0,75,0.00,,,0.00,LWC V2.00 B2112,2013-04-24 21:04:00,
2013-04-24 14:09:00,58.3,49.3,29.88,North,356,1.0,6.0,72,0.00,,,0.00,LWC V2.00 B2112,2013-04-24 21:09:00,
2013-04-24 14:14:00,57.8,49.2,29.88,ENE,77,2.0,5.0,73,0.00,,,0.00,LWC V2.00 B2112,2013-04-24 21:14:00,
2013-04-24 14:19:00,57.3,49.8,29.88,NNW,327,1.0,7.0,76,0.00,,,0.00,LWC V2.00 B2112,2013-04-24 21:19:00,
2013-04-24 14:24:00,57.9,50.4,29.88,NNW,336,5.0,5.0,76,0.00,,,0.00,LWC V2.00 B2112,2013-04-24 21:24:00,
2013-04-24 14:29:00,58.6,49.6,29.88,NNW,333,1.0,4.0,72,0.00,,,0.00,LWC V2.00 B2112,2013-04-24 21:29:00,
2013-04-24 14:34:00,58.6,49.6,29.88,NNW,336,4.0,5.0,72,0.00,,,0.00,LWC V2.00 B2112,2013-04-24 21:34:00,
2013-04-24 14:39:00,58.4,50.1,29.88,SE,133,0.0,3.0,74,0.00,,,0.00,LWC V2.00 B2112,2013-04-24 21:39:00,
2013-04-24 14:44:00,59.1,50.8,29.88,North,6,1.0,3.0,74,0.00,,,0.00,LWC V2.00 B2112,2013-04-24 21:44:00,
2013-04-24 14:49:00,59.8,50.0,29.88,NW,322,1.0,5.0,70,0.00,,,0.00,LWC V2.00 B2112,2013-04-24 21:49:00,
2013-04-24 14:54:00,59.5,50.1,29.87,NNE,32,1.0,5.0,71,0.00,,,0.00,LWC V2.00 B2112,2013-04-24 21:54:00,
2013-04-24 14:59:00,59.4,50.4,29.87,West,280,3.0,3.0,72,0.00,,,0.00,LWC V2.00 B2112,2013-04-24 21:59:00,
2013-04-24 15:04:00,59.2,50.5,29.87,WNW,294,1.0,2.0,73,0.00,,,0.00,LWC V2.00 B2112,2013-04-24 22:04:00,
2013-04-24 15:09:00,59.4,50.0,29.87,NNE,25,1.0,3.0,71,0.00,,,0.00,LWC V2.00 B2112,2013-04-24 22:09:00,
2013-04-24 15:14:00,58.9,49.5,29.87,WNW,301,0.0,6.0,71,0.00,,,0.00,LWC V2.00 B2112,2013-04-24 22:14:00,
2013-04-24 15:19:00,58.6,49.2,29.87,WNW,296,2.0,7.0,71,0.00,,,0.00,LWC V2.00 B2112,2013-04-24 22:19:00,
2013-04-24 15:24:00,58.5,49.5,29.87,ESE,105,2.0,7.0,72,0.00,,,0.00,LWC V2.00 B2112,2013-04-24 22:24:00,
2013-04-24 15:29:00,58.7,50.4,29.87,NNW,344,1.0,4.0,74,0.00,,,0.00,LWC V2.00 B2112,2013-04-24 22:29:00,
2013-04-24 15:34:00,58.6,49.2,29.87,NNE,13,6.0,8.0,71,0.00,,,0.00,LWC V2.00 B2112,2013-04-24 22:34:00,
2013-04-24 15:39:00,58.3,49.7,29.87,NW,314,2.0,6.0,73,0.00,,,0.00,LWC V2.00 B2112,2013-04-24 22:39:00,
2013-04-24 15:44:00,58.2,49.6,29.87,NNE,13,2.0,6.0,73,0.00,,,0.00,LWC V2.00 B2112,2013-04-24 22:44:00,
2013-04-24 15:49:00,58.0,49.4,29.87,WNW,300,3.0,3.0,73,0.00,,,0.00,LWC V2.00 B2112,2013-04-24 22:49:00,
2013-04-24 15:54:00,58.0,49.4,29.87,SSE,149,1.0,4.0,73,0.00,,,0.00,LWC V2.00 B2112,2013-04-24 22:54:00,
2013-04-24 15:59:00,57.9,49.7,29.86,NNE,26,4.0,5.0,74,0.00,,,0.00,LWC V2.00 B2112,2013-04-24 22:59:00,
2013-04-24 16:04:00,57.9,49.3,29.87,ESE,112,1.0,1.0,73,0.00,,,0.00,LWC V2.00 B2112,2013-04-24 23:04:00,
2013-04-24 16:09:00,58.2,50.0,29.86,SSW,212,0.0,4.0,74,0.00,,,0.00,LWC V2.00 B2112,2013-04-24 23:09:00,
2013-04-24 16:14:00,58.2,49.2,29.86,ENE,70,1.0,3.0,72,0.00,,,0.00,LWC V2.00 B2112,2013-04-24 23:14:00,
2013-04-24 16:19:00,57.8,49.2,29.86,West,277,0.0,3.0,73,0.00,,,0.00,LWC V2.00 B2112,2013-04-24 23:19:00,
2013-04-24 16:24:00,57.5,49.3,29.86,South,188,4.0,6.0,74,0.00,,,0.00,LWC V2.00 B2112,2013-04-24 23:24:00,
2013-04-24 16:29:00,57.1,48.9,29.86,ENE,65,1.0,4.0,74,0.00,,,0.00,LWC V2.00 B2112,2013-04-24 23:29:00,
2013-04-24 16:34:00,56.8,49.0,29.86,NE,44,0.0,5.0,75,0.00,,,0.00,LWC V2.00 B2112,2013-04-24 23:34:00,
2013-04-24 16:39:00,56.6,49.1,29.86,East,85,5.0,7.0,76,0.00,,,0.00,LWC V2.00 B2112,2013-04-24 23:39:00,
2013-04-24 16:44:00,56.2,48.7,29.86,NNE,20,5.0,5.0,76,0.00,,,0.00,LWC V2.00 B2112,2013-04-24 23:44:00,
2013-04-24 16:49:00,56.3,49.2,29.86,WNW,291,1.0,1.0,77,0.00,,,0.00,LWC V2.00 B2112,2013-04-24 23:49:00,
2013-04-24 16:54:00,56.5,49.0,29.86,NW,326,1.0,7.0,76,0.00,,,0.00,LWC V2.00 B2112,2013-04-24 23:54:00,
2013-04-24 16:59:00,56.0,48.5,29.86,East,79,4.0,7.0,76,0.00,,,0.00,LWC V2.00 B2112,2013-04-24 23:59:00,
2013-04-24 17:04:00,55.5,48.8,29.86,WNW,290,2.0,4.0,78,0.00,,,0.00,LWC V2.00 B2112,2013-04-25 00:04:00,
2013-04-24 17:09:00,55.6,48.8,29.86,NNW,334,2.0,5.0,78,0.00,,,0.00,LWC V2.00 B2112,2013-04-25 00:09:00,
2013-04-24 17:14:00,55.4,48.7,29.86,SSE,154,1.0,3.0,78,0.00,,,0.00,LWC V2.00 B2112,2013-04-25 00:14:00,
2013-04-24 17:19:00,55.4,49.0,29.86,East,94,1.0,2.0,79,0.00,,,0.00,LWC V2.00 B2112,2013-04-25 00:19:00,
2013-04-24 17:24:00,55.6,48.8,29.86,ENE,72,3.0,3.0,78,0.00,,,0.00,LWC V2.00 B2112,2013-04-25 00:24:00,
2013-04-24 17:29:00,55.4,49.0,29.86,WNW,298,0.0,4.0,79,0.00,,,0.00,LWC V2.00 B2112,2013-04-25 00:29:00,
2013-04-24 17:34:00,55.3,48.9,29.86,NW,311,1.0,2.0,79,0.00,,,0.00,LWC V2.00 B2112,2013-04-25 00:34:00,
2013-04-24 17:39:00,55.4,49.0,29.87,NE,53,1.0,2.0,79,0.00,,,0.00,LWC V2.00 B2112,2013-04-25 00:39:00,
2013-04-24 17:44:00,55.0,48.6,29.87,SSE,155,0.0,1.0,79,0.00,,,0.00,LWC V2.00 B2112,2013-04-25 00:44:00,
2013-04-24 17:49:00,54.8,48.4,29.87,NW,308,0.0,3.0,79,0.00,,,0.00,LWC V2.00 B2112,2013-04-25 00:49:00,
2013-04-24 17:54:00,54.8,48.4,29.87,NE,49,0.0,0.0,79,0.00,,,0.00,LWC V2.00 B2112,2013-04-25 00:54:00,
2013-04-24 17:59:00,54.6,48.2,29.87,SE,131,0.0,2.0,79,0.00,,,0.00,LWC V2.00 B2112,2013-04-25 00:59:00,
2013-04-24 18:04:00,54.6,48.6,29.87,SW,235,1.0,6.0,80,0.00,,,0.00,LWC V2.00 B2112,2013-04-25 01:04:00,
2013-04-24 18:09:00,54.5,48.5,29.88,NW,314,0.0,3.0,80,0.00,,,0.00,LWC V2.00 B2112,2013-04-25 01:09:00,
2013-04-24 18:14:00,54.3,48.3,29.88,NNW,328,1.0,2.0,80,0.00,,,0.00,LWC V2.00 B2112,2013-04-25 01:14:00,
2013-04-24 18:19:00,54.3,48.3,29.88,NW,322,2.0,4.0,80,0.00,,,0.00,LWC V2.00 B2112,2013-04-25 01:19:00,
2013-04-24 18:24:00,54.1,48.1,29.88,NNE,22,0.0,1.0,80,0.00,,,0.00,LWC V2.00 B2112,2013-04-25 01:24:00,
2013-04-24 18:29:00,53.9,48.2,29.88,NNE,32,1.0,3.0,81,0.00,,,0.00,LWC V2.00 B2112,2013-04-25 01:29:00,
2013-04-24 18:34:00,53.7,48.0,29.88,NW,326,0.0,4.0,81,0.00,,,0.00,LWC V2.00 B2112,2013-04-25 01:34:00,
2013-04-24 18:39:00,53.8,48.4,29.88,NNE,15,0.0,0.0,82,0.00,,,0.00,LWC V2.00 B2112,2013-04-25 01:39:00,
2013-04-24 18:44:00,53.7,48.0,29.88,West,267,0.0,0.0,81,0.00,,,0.00,LWC V2.00 B2112,2013-04-25 01:44:00,
2013-04-24 18:49:00,53.7,48.3,29.88,North,351,0.0,0.0,82,0.00,,,0.00,LWC V2.00 B2112,2013-04-25 01:49:00,
2013-04-24 18:55:00,53.6,48.2,29.88,WNW,295,0.0,2.0,82,0.00,,,0.00,LWC V2.00 B2112,2013-04-25 01:55:00,
2013-04-24 19:00:00,53.5,48.1,29.88,NNW,343,0.0,1.0,82,0.00,,,0.00,LWC V2.00 B2112,2013-04-25 02:00:00,
2013-04-24 19:05:00,53.5,48.1,29.88,NE,36,1.0,1.0,82,0.00,,,0.00,LWC V2.00 B2112,2013-04-25 02:05:00,
2013-04-24 19:10:00,53.5,48.5,29.88,NNE,32,0.0,0.0,83,0.00,,,0.00,LWC V2.00 B2112,2013-04-25 02:10:00,
2013-04-24 19:15:00,53.5,48.5,29.88,North,8,0.0,0.0,83,0.00,,,0.00,LWC V2.00 B2112,2013-04-25 02:15:00,
2013-04-24 19:20:00,53.4,48.4,29.88,NNE,32,0.0,0.0,83,0.00,,,0.00,LWC V2.00 B2112,2013-04-25 02:20:00,
2013-04-24 19:25:00,53.4,48.4,29.88,North,355,0.0,0.0,83,0.00,,,0.00,LWC V2.00 B2112,2013-04-25 02:25:00,
2013-04-24 19:30:00,53.3,48.3,29.88,North,355,0.0,0.0,83,0.00,,,0.00,LWC V2.00 B2112,2013-04-25 02:30:00,
2013-04-24 19:35:00,53.2,48.2,29.88,WNW,284,0.0,0.0,83,0.00,,,0.00,LWC V2.00 B2112,2013-04-25 02:35:00,
2013-04-24 19:40:00,53.1,48.1,29.88,WNW,283,0.0,0.0,83,0.00,,,0.00,LWC V2.00 B2112,2013-04-25 02:40:00,
2013-04-24 19:45:00,53.0,48.0,29.89,NNW,346,3.0,4.0,83,0.00,,,0.00,LWC V2.00 B2112,2013-04-25 02:45:00,
2013-04-24 19:50:00,52.9,48.2,29.89,East,80,0.0,2.0,84,0.00,,,0.00,LWC V2.00 B2112,2013-04-25 02:50:00,
2013-04-24 19:55:00,52.8,48.1,29.89,North,357,2.0,2.0,84,0.00,,,0.00,LWC V2.00 B2112,2013-04-25 02:55:00,
2013-04-24 20:00:00,52.8,48.1,29.89,ENE,71,0.0,0.0,84,0.00,,,0.00,LWC V2.00 B2112,2013-04-25 03:00:00,
2013-04-24 20:05:00,52.8,48.1,29.89,NW,325,0.0,3.0,84,0.00,,,0.00,LWC V2.00 B2112,2013-04-25 03:05:00,
2013-04-24 20:10:00,52.9,48.2,29.90,WNW,298,1.0,1.0,84,0.00,,,0.00,LWC V2.00 B2112,2013-04-25 03:10:00,
2013-04-24 20:15:00,52.9,48.2,29.90,ESE,102,0.0,1.0,84,0.00,,,0.00,LWC V2.00 B2112,2013-04-25 03:15:00,
2013-04-24 20:20:00,52.8,48.1,29.90,ESE,102,0.0,0.0,84,0.00,,,0.00,LWC V2.00 B2112,2013-04-25 03:20:00,
2013-04-24 20:25:00,52.8,48.1,29.90,NW,319,0.0,1.0,84,0.00,,,0.00,LWC V2.00 B2112,2013-04-25 03:25:00,
2013-04-24 20:30:00,52.9,48.2,29.90,WNW,298,0.0,1.0,84,0.00,,,0.00,LWC V2.00 B2112,2013-04-25 03:30:00,
2013-04-24 20:35:00,52.8,48.4,29.90,East,95,0.0,0.0,85,0.00,,,0.00,LWC V2.00 B2112,2013-04-25 03:35:00,
2013-04-24 20:40:00,52.8,48.4,29.90,NE,37,0.0,0.0,85,0.00,,,0.00,LWC V2.00 B2112,2013-04-25 03:40:00,
2013-04-24 20:45:00,52.8,48.4,29.90,East,81,0.0,0.0,85,0.00,,,0.00,LWC V2.00 B2112,2013-04-25 03:45:00,
2013-04-24 20:50:00,52.9,48.2,29.90,NW,315,0.0,3.0,84,0.00,,,0.00,LWC V2.00 B2112,2013-04-25 03:50:00,
2013-04-24 21:00:00,52.9,48.5,29.91,North,0,0.0,0.0,85,0.00,,,0.00,LWC V2.00 B2112,2013-04-25 04:00:00,
2013-04-24 21:10:00,52.9,48.5,29.91,North,0,0.0,0.0,85,0.00,,,0.00,LWC V2.00 B2112,2013-04-25 04:10:00,
2013-04-24 21:20:00,52.9,48.5,29.91,North,0,0.0,0.0,85,0.00,,,0.00,LWC V2.00 B2112,2013-04-25 04:20:00,
2013-04-24 21:30:00,52.7,48.3,29.91,ENE,68,0.0,2.0,85,0.00,,,0.00,LWC V2.00 B2112,2013-04-25 04:30:00,
2013-04-24 21:40:00,52.7,48.3,29.91,ENE,68,0.0,2.0,85,0.00,,,0.00,LWC V2.00 B2112,2013-04-25 04:40:00,
2013-04-24 21:50:00,52.7,48.3,29.91,ENE,68,0.0,2.0,85,0.00,,,0.00,LWC V2.00 B2112,2013-04-25 04:50:00,
2013-04-24 22:00:00,52.7,48.3,29.91,ENE,68,0.0,2.0,85,0.00,,,0.00,LWC V2.00 B2112,2013-04-25 05:00:00,
2013-04-24 22:10:00,52.7,48.6,29.92,North,0,0.0,0.0,86,0.00,,,0.00,LWC V2.00 B2112,2013-04-25 05:10:00,
2013-04-24 22:20:00,52.7,48.6,29.92,North,0,0.0,0.0,86,0.00,,,0.00,LWC V2.00 B2112,2013-04-25 05:20:00,
2013-04-24 22:30:00,52.7,48.6,29.92,North,0,0.0,0.0,86,0.00,,,0.00,LWC V2.00 B2112,2013-04-25 05:30:00,
2013-04-24 22:40:00,52.5,48.4,29.92,WSW,248,0.0,1.0,86,0.00,,,0.00,LWC V2.00 B2112,2013-04-25 05:40:00,
2013-04-24 22:50:00,52.5,48.4,29.92,WSW,248,0.0,1.0,86,0.00,,,0.00,LWC V2.00 B2112,2013-04-25 05:50:00,
2013-04-24 23:00:00,52.5,48.4,29.92,WSW,248,0.0,1.0,86,0.00,,,0.00,LWC V2.00 B2112,2013-04-25 06:00:00,
2013-04-24 23:10:00,52.5,48.7,29.92,NE,45,0.0,3.0,87,0.00,,,0.00,LWC V2.00 B2112,2013-04-25 06:10:00,
2013-04-24 23:20:00,52.5,48.7,29.92,NE,45,0.0,3.0,87,0.00,,,0.00,LWC V2.00 B2112,2013-04-25 06:20:00,
2013-04-24 23:30:00,52.5,48.7,29.92,NE,45,0.0,3.0,87,0.00,,,0.00,LWC V2.00 B2112,2013-04-25 06:30:00,
2013-04-24 23:40:00,52.4,49.0,29.92,ENE,68,0.0,1.0,88,0.00,,,0.00,LWC V2.00 B2112,2013-04-25 06:40:00,
2013-04-24 23:50:00,52.4,49.0,29.92,ENE,68,0.0,1.0,88,0.00,,,0.00,LWC V2.00 B2112,2013-04-25 06:50:00,